Highworth, United Kingdom
Current Conditions -  °F | °C
As of 11:58 AM on Friday 28 Nov 2014 (Local Time) from EGVA Reporting Station
Overcast Overcast  
Wind Chill: 52°   Ceiling: 1100
Heat Index: 52°   Visibility: 6mi
Dew Point: 49°   Wind: 10mph
Humidity: 90%   Direction: 70°ENE
Pressure: 29.57"   Gusts: NA
Location:  51.63°N, 1.71°W
Report Text: EGVA 281158Z AUTO 07009KT 9999 OVC011 11/10 A2957 RMK AO2 SLP018 T01110095 10111 20093 50000 $
Loading
Personal Weather Stations






























Interactive Weather Map New forecast layout! Learn more

10-Day Weather Forecast

Advertisements
Track Severe Weather on mobile